CST,Max TemperatureF,Mean TemperatureF,Min TemperatureF,Max Dew PointF,MeanDew PointF,Min DewpointF,Max Humidity, Mean Humidity, Min Humidity, Max Sea Level PressureIn, Mean Sea Level PressureIn, Min Sea Level PressureIn, Max VisibilityMiles, Mean VisibilityMiles, Min VisibilityMiles, Max Wind SpeedMPH, Mean Wind SpeedMPH, Max Gust SpeedMPH,PrecipitationIn, CloudCover, Events, WindDirDegrees
2013-11-1,44,40,37,45,40,36,100,95,86,29.72,29.47,29.19,10,9,3,17,10,21,0.01,8,Rain,314
2013-11-2,40,36,33,36,34,31,100,92,70,30.13,29.94,29.72,10,10,2,9,4,,0.07,8,Rain-Snow,8
2013-11-3,44,36,28,35,32,28,99,88,63,30.25,30.19,30.13,10,10,10,18,8,23,0.00,5,,144
2013-11-4,46,42,37,43,38,35,99,87,68,30.17,30.06,29.96,10,9,2,24,15,31,0.00,6,Rain,177
2013-11-5,46,38,29,38,35,30,100,89,63,30.24,30.12,29.88,10,6,0,15,5,21,0.36,5,Fog-Rain,338
2013-11-6,36,30,25,35,29,20,98,87,72,30.06,29.90,29.77,10,9,3,18,14,24,0.10,7,Rain-Snow,335
2013-11-7,36,28,21,23,21,19,93,74,53,30.15,30.10,30.07,10,10,10,16,8,22,0.00,4,,288
2013-11-8,35,29,23,32,26,23,100,88,68,30.20,30.06,29.74,10,6,0,17,7,26,0.04,6,Fog-Snow,194
2013-11-9,37,34,32,37,32,28,100,89,72,29.95,29.74,29.61,10,8,1,26,14,37,0.05,8,Snow,258
2013-11-10,40,36,32,32,27,25,99,73,56,30.22,30.12,29.95,10,10,3,18,14,31,0.00,5,Snow,274
2013-11-11,32,26,20,32,17,9,99,71,49,30.51,30.23,30.00,10,10,5,26,13,33,0.00,7,Snow,331
2013-11-12,25,18,12,13,9,5,86,68,44,30.61,30.52,30.39,10,10,10,13,10,18,0.00,0,,287
2013-11-13,43,29,15,26,19,10,84,66,50,30.39,30.08,29.87,10,10,10,24,13,33,0.00,0,,239
2013-11-14,36,32,28,30,25,21,94,76,64,29.87,29.81,29.78,10,10,10,12,7,,0.00,3,,232
2013-11-15,49,36,23,35,30,23,99,82,54,29.85,29.82,29.79,10,9,5,9,2,,0.00,0,,210
2013-11-16,52,42,32,51,39,30,100,97,90,29.80,29.58,29.36,10,6,0,18,11,28,0.67,7,Fog-Rain,168
2013-11-17,52,44,34,50,41,30,100,93,78,29.49,29.33,29.19,10,7,1,34,12,47,0.02,6,Rain,257
2013-11-18,34,28,23,29,20,16,85,72,63,30.18,29.88,29.50,10,10,5,30,20,43,0.00,8,Snow,303
2013-11-19,33,24,15,26,19,13,92,74,54,30.30,30.22,30.15,10,10,10,16,7,22,0.00,2,,159
2013-11-20,34,32,29,32,27,25,98,82,68,30.16,30.10,30.05,10,8,2,18,12,24,0.03,8,Snow,163
2013-11-21,33,30,28,33,31,23,100,97,81,30.28,30.15,30.06,10,4,0,17,5,23,0.00,8,Fog-Snow,315
2013-11-22,29,24,17,24,15,7,93,71,46,30.41,30.35,30.27,10,9,2,18,13,24,0.00,4,Snow,308
2013-11-23,16,10,3,10,0,-3,84,66,53,30.61,30.52,30.35,10,10,5,24,13,30,0.00,4,Snow,317
2013-11-24,21,10,0,8,1,-4,85,64,44,30.56,30.34,29.98,10,10,10,22,9,29,0.00,2,,237
2013-11-25,31,26,21,26,19,7,81,70,54,29.97,29.87,29.83,10,10,10,24,16,32,0.00,7,,247
2013-11-26,30,18,6,24,8,1,86,67,50,30.15,30.02,29.88,10,10,1,18,12,26,0.00,5,Snow,310
2013-11-27,23,14,5,16,8,3,91,74,48,30.19,30.14,30.11,10,9,1,15,7,16,0.00,4,Snow,329
2013-11-28,22,12,2,16,12,-1,94,85,67,30.42,30.20,30.07,10,8,2,10,4,,0.00,6,Snow,277
2013-11-29,23,12,0,19,12,-3,96,85,68,30.52,30.42,30.23,10,8,0,14,3,17,0.00,4,Fog-Snow,166
2013-11-30,34,28,21,26,22,16,89,80,69,30.23,30.06,29.97,10,10,10,9,5,,0.00,5,,204